createdAt,value
2019-05-20T00:01:47.192Z,97248.67
2019-05-20T00:04:16.317Z,97257.87
2019-05-20T00:06:45.480Z,97264.03
2019-05-20T00:09:14.759Z,97268.81
2019-05-20T00:11:43.948Z,97272.37
2019-05-20T00:14:14.090Z,97270.23
2019-05-20T00:17:22.289Z,97259.05
2019-05-20T00:19:51.450Z,97261.58
2019-05-20T00:22:20.984Z,97261.67
2019-05-20T00:24:50.540Z,97262.52
2019-05-20T00:27:20.036Z,97256.63
2019-05-20T00:29:49.506Z,97236.38
2019-05-20T00:32:18.669Z,97259.13
2019-05-20T00:34:47.809Z,97259.13
2019-05-20T00:37:17.228Z,97257.66
2019-05-20T00:39:46.568Z,97250.48
2019-05-20T00:42:16.039Z,97235.13
2019-05-20T00:44:45.430Z,97235.13
2019-05-20T00:47:14.911Z,97237.32
2019-05-20T00:49:44.029Z,97226.61
2019-05-20T00:52:13.500Z,97226.61
2019-05-20T00:54:42.661Z,97218.27
2019-05-20T00:57:12.245Z,97209.08
2019-05-20T00:59:41.558Z,97214.34
2019-05-20T01:02:10.945Z,97206.94
2019-05-20T01:04:40.731Z,97204.27
2019-05-20T01:07:10.124Z,97205.13
2019-05-20T01:09:39.272Z,97205.38
2019-05-20T01:12:08.430Z,97201.20
2019-05-20T01:14:37.587Z,97205.07
2019-05-20T01:17:07.380Z,97203.87
2019-05-20T01:19:36.448Z,97199.23
2019-05-20T01:22:05.583Z,97202.08
2019-05-20T01:24:33.215Z,97206.15
2019-05-20T01:27:01.550Z,97205.20
2019-05-20T01:29:30.682Z,97202.39
2019-05-20T01:31:59.977Z,97199.09
2019-05-20T01:34:29.162Z,97197.04
2019-05-20T01:36:57.102Z,97186.65
2019-05-20T01:39:26.826Z,97085.05
2019-05-20T01:41:54.277Z,97195.45
2019-05-20T01:44:41.844Z,97192.23
2019-05-20T01:47:10.062Z,97196.25
2019-05-20T01:49:38.565Z,97200.80
2019-05-20T01:52:07.173Z,97198.92
2019-05-20T01:54:35.937Z,97197.98
2019-05-20T01:57:04.527Z,97201.05
2019-05-20T01:59:34.117Z,97201.91
2019-05-20T02:02:02.712Z,97204.44
2019-05-20T02:04:30.806Z,97208.20
2019-05-20T02:06:58.635Z,97212.53
2019-05-20T02:09:26.423Z,97215.52
2019-05-20T02:11:53.961Z,97222.69
2019-05-20T02:14:24.364Z,97221.13
2019-05-20T02:16:55.600Z,97218.19
2019-05-20T02:19:23.246Z,97213.95
2019-05-20T02:21:50.790Z,97211.50
2019-05-20T02:24:18.709Z,97216.41
2019-05-20T02:26:47.398Z,97206.78
2019-05-20T02:29:16.108Z,97207.98
2019-05-20T02:31:43.696Z,97197.50
2019-05-20T02:34:11.537Z,97211.19
2019-05-20T02:36:38.977Z,97210.11
2019-05-20T02:39:07.046Z,97210.11
2019-05-20T02:41:34.678Z,97214.80
2019-05-20T02:44:02.727Z,97217.25
2019-05-20T02:46:30.726Z,97209.71
2019-05-20T02:48:58.245Z,97201.69
2019-05-20T02:51:31.875Z,97201.42
2019-05-20T02:54:00.525Z,97210.56
2019-05-20T02:56:28.253Z,97199.01
2019-05-20T02:58:55.851Z,97206.55
2019-05-20T03:01:23.214Z,97213.73
2019-05-20T03:04:09.882Z,97208.43
2019-05-20T03:06:20.642Z,97221.13
2019-05-20T03:08:48.051Z,97215.77
2019-05-20T03:11:15.791Z,97208.20
2019-05-20T03:13:45.885Z,97212.78
2019-05-20T03:16:15.700Z,97219.22
2019-05-20T03:18:44.365Z,97216.31
2019-05-20T03:21:14.081Z,97215.47
2019-05-20T03:23:43.198Z,97219.13
2019-05-20T03:26:13.407Z,97221.27
2019-05-20T03:28:43.194Z,97210.11
2019-05-20T03:31:11.053Z,97217.03
2019-05-20T03:33:40.006Z,97218.37
2019-05-20T03:36:09.014Z,97221.04
2019-05-20T03:38:37.432Z,97215.47
2019-05-20T03:41:05.067Z,97217.97
2019-05-20T03:43:33.574Z,97213.64
2019-05-20T03:46:01.455Z,97209.94
2019-05-20T03:48:29.208Z,97209.94
2019-05-20T03:50:56.750Z,97208.38
2019-05-20T03:53:24.502Z,97199.41
2019-05-20T03:55:52.120Z,97202.71
2019-05-20T03:58:19.497Z,97201.91
2019-05-20T04:00:47.601Z,97201.59
2019-05-20T04:03:16.057Z,97202.14
2019-05-20T04:05:46.118Z,97198.13
2019-05-20T04:08:14.198Z,97197.05
2019-05-20T04:10:41.574Z,97201.28
2019-05-20T04:13:09.299Z,97196.02
2019-05-20T04:15:36.906Z,97201.59
2019-05-20T04:18:04.577Z,97208.06
2019-05-20T04:20:32.147Z,97204.98
2019-05-20T04:22:59.410Z,97196.73
2019-05-20T04:25:27.071Z,97200.97
2019-05-20T04:27:55.344Z,97198.75
2019-05-20T04:30:23.648Z,97201.20
2019-05-20T04:32:51.483Z,97198.84
2019-05-20T04:35:22.861Z,97194.05
2019-05-20T04:42:21.490Z,97192.71
2019-05-20T04:44:49.945Z,97197.09
2019-05-20T04:47:17.523Z,97189.33
2019-05-20T04:49:45.796Z,97193.34
2019-05-20T04:52:13.584Z,97195.30
2019-05-20T04:54:42.021Z,97197.50
2019-05-20T04:57:10.145Z,97195.75
2019-05-20T04:59:38.656Z,97197.58
2019-05-20T05:02:06.722Z,97194.67
2019-05-20T05:04:34.701Z,97201.98
2019-05-20T05:07:02.375Z,97202.84
2019-05-20T05:09:29.720Z,97207.47
2019-05-20T05:11:58.002Z,97211.03
2019-05-20T05:14:25.666Z,97211.03
2019-05-20T05:16:53.475Z,97209.47
2019-05-20T05:19:20.823Z,97213.09
2019-05-20T05:21:48.223Z,97214.34
2019-05-20T05:24:15.884Z,97212.20
2019-05-20T05:26:47.568Z,97215.05
2019-05-20T05:29:14.441Z,97216.55
2019-05-20T05:31:42.522Z,97214.86
2019-05-20T05:34:10.529Z,97220.61
2019-05-20T05:36:38.408Z,97222.84
2019-05-20T05:39:05.846Z,97226.36
2019-05-20T05:41:33.154Z,97227.86
2019-05-20T05:44:00.889Z,97227.86
2019-05-20T05:46:28.195Z,97225.89
2019-05-20T05:48:55.452Z,97230.13
2019-05-20T05:51:22.671Z,97230.36
2019-05-20T05:53:49.918Z,97229.53
2019-05-20T05:56:17.152Z,97229.67
2019-05-20T05:58:44.442Z,97228.48
2019-05-20T06:01:12.449Z,97238.03
2019-05-20T06:03:39.650Z,97230.22
2019-05-20T06:06:12.246Z,97229.33
2019-05-20T06:08:37.052Z,97225.25
2019-05-20T06:11:04.310Z,97228.95
2019-05-20T06:13:31.489Z,97219.70
2019-05-20T06:15:59.038Z,97235.84
2019-05-20T06:18:26.263Z,97235.69
2019-05-20T06:21:21.176Z,97228.39
2019-05-20T06:23:49.214Z,97227.94
2019-05-20T06:26:17.578Z,97228.39
2019-05-20T06:28:45.703Z,97233.30
2019-05-20T06:31:12.934Z,97235.34
2019-05-20T06:33:41.022Z,97239.81
2019-05-20T06:36:08.876Z,97244.41
2019-05-20T06:38:40.552Z,97239.17
2019-05-20T06:41:07.990Z,97247.91
2019-05-20T06:43:35.166Z,97253.28
2019-05-20T06:46:02.566Z,97245.23
2019-05-20T06:48:31.297Z,97256.11
2019-05-20T06:50:58.551Z,97250.81
2019-05-20T06:53:27.073Z,97253.91
2019-05-20T06:55:54.898Z,97261.25
2019-05-20T06:58:22.131Z,97261.25
2019-05-20T07:00:49.503Z,97257.87
2019-05-20T07:03:17.071Z,97264.66
2019-05-20T07:05:44.558Z,97262.08
2019-05-20T07:08:12.352Z,97262.48
2019-05-20T07:10:39.666Z,97273.58
2019-05-20T07:13:07.496Z,97257.06
2019-05-20T07:15:35.273Z,97262.78
2019-05-20T07:18:03.415Z,97265.27
2019-05-20T07:20:31.484Z,97265.27
2019-05-20T07:22:59.698Z,97269.52
2019-05-20T07:25:27.676Z,97265.43
2019-05-20T07:27:56.079Z,97272.27
2019-05-20T07:30:23.628Z,97269.20
2019-05-20T07:32:51.736Z,97267.80
2019-05-20T07:35:30.310Z,97263.70
2019-05-20T07:37:52.788Z,97246.98
2019-05-20T07:40:30.323Z,97246.98
2019-05-20T07:45:41.078Z,97264.05
2019-05-20T07:48:08.949Z,97270.20
2019-05-20T07:50:37.391Z,97265.88
2019-05-20T07:53:05.460Z,97265.88
2019-05-20T07:55:36.324Z,97271.65
2019-05-20T08:00:38.039Z,97264.86
2019-05-20T08:03:06.121Z,97269.60
2019-05-20T08:05:33.791Z,97259.46
2019-05-20T08:08:01.471Z,97260.00
2019-05-20T08:10:28.990Z,97247.72
2019-05-20T08:12:57.231Z,97259.91
2019-05-20T08:15:24.849Z,97273.39
2019-05-20T08:17:53.079Z,97182.86
2019-05-20T08:20:21.146Z,97283.62
2019-05-20T08:22:49.094Z,97277.64
2019-05-20T08:25:16.874Z,97269.19
2019-05-20T08:27:44.416Z,97266.45
2019-05-20T08:30:14.136Z,97268.81
2019-05-20T08:32:41.977Z,97273.28
2019-05-20T08:35:09.976Z,97275.97
2019-05-20T08:37:45.527Z,97286.14
2019-05-20T08:40:06.895Z,97289.45
2019-05-20T08:42:34.878Z,97293.94
2019-05-20T08:45:03.041Z,97291.26
2019-05-20T08:47:30.698Z,97274.88
2019-05-20T08:49:58.808Z,97281.58
2019-05-20T08:52:26.625Z,97298.53
2019-05-20T08:54:53.852Z,97298.53
2019-05-20T08:57:21.110Z,97305.69
2019-05-20T08:59:48.823Z,97311.52
2019-05-20T09:02:16.490Z,97302.37
2019-05-20T09:04:43.815Z,97295.27
2019-05-20T09:07:11.029Z,97302.94
2019-05-20T09:09:38.337Z,97301.20
2019-05-20T09:12:05.765Z,97305.54
2019-05-20T09:14:33.137Z,97298.84
2019-05-20T09:17:00.996Z,97212.78
2019-05-20T09:19:28.259Z,97294.51
2019-05-20T09:21:56.708Z,97299.95
2019-05-20T09:24:24.111Z,97303.01
2019-05-20T09:26:51.365Z,97319.56
2019-05-20T09:29:18.839Z,97327.91
2019-05-20T09:31:46.389Z,97297.50
2019-05-20T09:34:14.739Z,97297.50
2019-05-20T09:36:42.281Z,97313.38
2019-05-20T09:39:09.761Z,97319.31
2019-05-20T09:41:37.744Z,97312.54
2019-05-20T09:44:05.184Z,97323.03
2019-05-20T09:46:33.584Z,97328.61
2019-05-20T09:49:01.020Z,97328.61
2019-05-20T09:51:28.686Z,97328.84
2019-05-20T09:53:56.339Z,97331.19
2019-05-20T09:56:23.559Z,97323.45
2019-05-20T09:58:50.804Z,97324.88
2019-05-20T10:01:18.337Z,97332.69
2019-05-20T10:03:45.635Z,97330.09
2019-05-20T10:06:13.241Z,97331.66
2019-05-20T10:08:44.702Z,97332.14
2019-05-20T10:11:09.936Z,97336.14
2019-05-20T10:13:37.147Z,97338.83
2019-05-20T10:16:04.665Z,97339.83
2019-05-20T10:18:37.259Z,97338.58
2019-05-20T10:21:01.956Z,97341.56
2019-05-20T10:23:29.171Z,97330.03
2019-05-20T10:25:57.359Z,97337.34
2019-05-20T10:28:25.535Z,97339.80
2019-05-20T10:30:52.783Z,97344.69
2019-05-20T10:33:21.818Z,97346.05
2019-05-20T10:35:49.649Z,97347.23
2019-05-20T10:38:17.513Z,97353.86
2019-05-20T10:40:45.429Z,97351.59
2019-05-20T10:43:13.199Z,97350.41
2019-05-20T10:45:41.491Z,97355.54
2019-05-20T10:48:09.370Z,97348.45
2019-05-20T10:50:36.710Z,97351.98
2019-05-20T10:53:04.195Z,97358.63
2019-05-20T10:55:31.654Z,97363.98
2019-05-20T10:57:59.321Z,97358.44
2019-05-20T11:00:27.490Z,97364.92
2019-05-20T11:02:54.741Z,97367.91
2019-05-20T11:05:21.950Z,97366.26
2019-05-20T11:07:50.625Z,97370.98
2019-05-20T11:10:18.247Z,97363.32
2019-05-20T11:12:46.265Z,97370.02
2019-05-20T11:15:13.871Z,97369.57
2019-05-20T11:17:41.390Z,97247.00
2019-05-20T11:20:08.640Z,97373.41
2019-05-20T11:22:35.904Z,97371.06
2019-05-20T11:25:03.439Z,97368.52
2019-05-20T11:27:30.833Z,97371.92
2019-05-20T11:29:58.202Z,97373.19
2019-05-20T11:32:25.494Z,97374.22
2019-05-20T11:34:52.995Z,97378.24
2019-05-20T11:37:20.959Z,97373.52
2019-05-20T11:39:48.205Z,97370.61
2019-05-20T11:42:15.779Z,97375.48
2019-05-20T11:44:43.058Z,97368.16
2019-05-20T11:47:10.654Z,97373.81
2019-05-20T11:49:38.015Z,97367.59
2019-05-20T11:52:05.594Z,97363.66
2019-05-20T11:54:33.749Z,97369.00
2019-05-20T11:57:01.714Z,97364.28
2019-05-20T11:59:29.515Z,97369.77
2019-05-20T12:01:57.070Z,97368.11
2019-05-20T12:04:24.375Z,97376.64
2019-05-20T12:06:51.601Z,97372.39
2019-05-20T12:09:19.205Z,97377.98
2019-05-20T12:11:47.552Z,97379.55
2019-05-20T12:14:15.162Z,97377.05
2019-05-20T12:16:42.987Z,97378.84
2019-05-20T12:19:10.196Z,97376.73
2019-05-20T12:21:37.600Z,97381.30
2019-05-20T12:24:04.835Z,97382.23
2019-05-20T12:26:32.215Z,97384.27
2019-05-20T12:29:00.054Z,97380.66
2019-05-20T12:31:27.315Z,97388.25
2019-05-20T12:33:54.669Z,97377.52
2019-05-20T12:36:21.897Z,97370.27
2019-05-20T12:38:49.499Z,97370.27
2019-05-20T12:41:16.745Z,97380.15
2019-05-20T12:43:44.803Z,97378.41
2019-05-20T12:46:12.746Z,97374.19
2019-05-20T12:48:40.269Z,97373.64
2019-05-20T12:52:34.577Z,97372.57
2019-05-20T12:55:07.826Z,97368.59
2019-05-20T12:57:31.085Z,97374.89
2019-05-20T12:59:58.465Z,97370.96
2019-05-20T13:02:25.978Z,97353.84
2019-05-20T13:04:53.190Z,97353.84
2019-05-20T13:07:21.153Z,97369.10
2019-05-20T13:09:48.795Z,97359.27
2019-05-20T13:12:16.009Z,97345.25
2019-05-20T13:14:43.868Z,97345.25
2019-05-20T13:17:12.659Z,97361.02
2019-05-20T13:19:41.133Z,97356.80
2019-05-20T13:22:08.716Z,97358.79
2019-05-20T13:24:36.193Z,97357.27
2019-05-20T13:27:03.542Z,97363.37
2019-05-20T13:29:30.970Z,97362.73
2019-05-20T13:31:58.816Z,97362.03
2019-05-20T13:34:26.848Z,97360.56
2019-05-20T13:36:54.418Z,97361.48
2019-05-20T13:39:40.596Z,97359.73
2019-05-20T13:42:08.226Z,97362.98
2019-05-20T13:44:35.726Z,97352.29
2019-05-20T13:47:03.104Z,97354.66
2019-05-20T13:49:31.467Z,97351.11
2019-05-20T13:51:59.015Z,97347.25
2019-05-20T13:54:26.776Z,97354.27
2019-05-20T13:56:54.245Z,97349.98
2019-05-20T13:59:22.129Z,97347.12
2019-05-20T14:01:49.396Z,97344.69
2019-05-20T14:04:17.131Z,97336.09
2019-05-20T14:06:44.577Z,97341.94
2019-05-20T14:09:11.750Z,97338.55
2019-05-20T14:11:39.255Z,97337.16
2019-05-20T14:14:06.540Z,97336.48
2019-05-20T14:16:34.334Z,97330.98
2019-05-20T14:19:01.980Z,97328.09
2019-05-20T14:21:30.244Z,97324.01
2019-05-20T14:25:05.704Z,97326.13
2019-05-20T14:27:34.145Z,97326.77
2019-05-20T14:30:02.267Z,97324.45
2019-05-20T14:32:30.081Z,97329.59
2019-05-20T14:34:57.647Z,97321.78
2019-05-20T14:37:25.425Z,97317.94
2019-05-20T14:39:52.935Z,97329.70
2019-05-20T14:42:21.010Z,97329.70
2019-05-20T14:44:48.900Z,97332.70
2019-05-20T14:47:16.124Z,97340.73
2019-05-20T14:49:43.360Z,97346.64
2019-05-20T14:52:10.889Z,97346.64
2019-05-20T14:54:38.123Z,97348.30
2019-05-20T14:57:05.414Z,97346.24
2019-05-20T14:59:32.724Z,97351.55
2019-05-20T15:02:00.022Z,97353.66
2019-05-20T15:04:27.744Z,97353.66
2019-05-20T15:06:54.927Z,97348.30
2019-05-20T15:09:22.319Z,97351.87
2019-05-20T15:11:49.907Z,97352.32
2019-05-20T15:14:18.180Z,97351.47
2019-05-20T15:16:45.452Z,97354.22
2019-05-20T15:19:12.997Z,97358.47
2019-05-20T15:21:40.353Z,97361.63
2019-05-20T15:24:07.724Z,97363.83
2019-05-20T15:26:36.204Z,97367.14
2019-05-20T15:29:04.595Z,97372.98
2019-05-20T15:31:32.434Z,97376.74
2019-05-20T15:34:00.078Z,97368.14
2019-05-20T15:36:28.656Z,97372.53
2019-05-20T15:38:56.484Z,97375.12
2019-05-20T15:41:23.717Z,97372.14
2019-05-20T15:43:52.145Z,97372.02
2019-05-20T15:46:19.469Z,97380.84
2019-05-20T15:48:46.804Z,97380.84
2019-05-20T15:51:14.067Z,97370.84
2019-05-20T15:53:41.355Z,97380.38
2019-05-20T15:56:08.633Z,97378.00
2019-05-20T15:58:35.957Z,97373.30
2019-05-20T16:01:03.741Z,97382.82
2019-05-20T16:03:31.508Z,97379.66
2019-05-20T16:06:00.119Z,97378.80
2019-05-20T16:08:28.158Z,97374.38
2019-05-20T16:10:55.496Z,97381.88
2019-05-20T16:13:22.748Z,97381.08
2019-05-20T16:15:50.213Z,97386.13
2019-05-20T16:18:17.950Z,97393.62
2019-05-20T16:20:45.272Z,97393.22
2019-05-20T16:24:53.751Z,97392.83
2019-05-20T16:27:21.307Z,97392.99
2019-05-20T16:30:04.748Z,97389.38
2019-05-20T16:32:18.286Z,97394.02
2019-05-20T16:34:45.571Z,97394.02
2019-05-20T16:37:13.136Z,97392.99
2019-05-20T16:39:40.469Z,97395.19
2019-05-20T16:42:08.018Z,97392.67
2019-05-20T16:44:35.342Z,97388.88
2019-05-20T16:47:03.071Z,97396.84
2019-05-20T16:49:30.595Z,97391.56
2019-05-20T16:51:58.555Z,97401.97
2019-05-20T16:54:26.308Z,97398.44
2019-05-20T16:56:54.255Z,97395.36
2019-05-20T16:59:22.547Z,97398.18
2019-05-20T17:01:50.194Z,97410.01
2019-05-20T17:04:17.552Z,97410.01
2019-05-20T17:06:44.787Z,97406.12
2019-05-20T17:09:12.037Z,97404.33
2019-05-20T17:11:40.379Z,97405.67
2019-05-20T17:14:10.595Z,97400.86
2019-05-20T17:16:37.146Z,97408.23
2019-05-20T17:19:04.650Z,97412.02
2019-05-20T17:21:31.915Z,97399.97
2019-05-20T17:23:59.248Z,97405.76
2019-05-20T17:26:54.186Z,97407.16
2019-05-20T17:29:22.498Z,97410.77
2019-05-20T17:31:50.077Z,97410.77
2019-05-20T17:34:17.859Z,97415.19
2019-05-20T17:36:47.838Z,97416.70
2019-05-20T17:39:15.417Z,97409.47
2019-05-20T17:41:43.968Z,97409.16
2019-05-20T17:44:11.264Z,97410.95
2019-05-20T17:46:38.549Z,97408.58
2019-05-20T17:49:06.179Z,97414.52
2019-05-20T17:51:33.882Z,97416.80
2019-05-20T17:54:01.833Z,97423.89
2019-05-20T17:56:29.691Z,97417.42
2019-05-20T17:58:57.544Z,97416.48
2019-05-20T18:03:41.492Z,97429.70
2019-05-20T18:06:10.208Z,97427.59
2019-05-20T18:08:40.696Z,97427.59
2019-05-20T18:11:07.992Z,97425.77
2019-05-20T18:13:36.140Z,97438.69
2019-05-20T18:16:03.567Z,97440.83
2019-05-20T18:18:31.443Z,97442.16
2019-05-20T18:20:58.824Z,97447.30
2019-05-20T18:23:26.029Z,97452.70
2019-05-20T18:25:53.288Z,97456.19
2019-05-20T18:28:20.647Z,97457.92
2019-05-20T18:30:49.034Z,97461.55
2019-05-20T18:33:16.302Z,97455.56
2019-05-20T18:35:44.064Z,97458.06
2019-05-20T18:38:14.068Z,97453.68
2019-05-20T18:40:42.021Z,97450.69
2019-05-20T18:43:10.241Z,97448.23
2019-05-20T18:45:38.330Z,97448.23
2019-05-20T18:48:05.786Z,97440.11
2019-05-20T18:50:33.161Z,97435.23
2019-05-20T18:53:00.606Z,97438.06
2019-05-20T18:55:28.608Z,97438.06
2019-05-20T18:57:56.043Z,97433.50
2019-05-20T19:00:24.199Z,97428.99
2019-05-20T19:02:52.202Z,97423.80
2019-05-20T19:05:19.768Z,97421.21
2019-05-20T19:07:47.591Z,97412.69
2019-05-20T19:10:14.984Z,97417.11
2019-05-20T19:12:43.125Z,97426.72
2019-05-20T19:15:11.444Z,97439.08
2019-05-20T19:17:38.821Z,97439.08
2019-05-20T19:20:08.607Z,97443.02
2019-05-20T19:22:36.274Z,97447.13
2019-05-20T19:25:05.622Z,97450.29
2019-05-20T19:27:33.241Z,97451.00
2019-05-20T19:30:00.424Z,97456.36
2019-05-20T19:32:28.875Z,97455.73
2019-05-20T19:34:56.124Z,97458.16
2019-05-20T19:37:24.088Z,97464.31
2019-05-20T19:39:51.725Z,97466.83
2019-05-20T19:42:18.994Z,97459.50
2019-05-20T19:44:47.057Z,97471.64
2019-05-20T19:47:14.312Z,97471.64
2019-05-20T19:49:42.726Z,97489.95
2019-05-20T19:52:10.239Z,97483.48
2019-05-20T19:54:37.791Z,97482.59
2019-05-20T19:57:05.050Z,97482.59
2019-05-20T19:59:33.121Z,97479.86
2019-05-20T20:02:16.424Z,97481.73
2019-05-20T20:04:32.225Z,97484.42
2019-05-20T20:06:59.494Z,97478.57
2019-05-20T20:09:26.744Z,97479.05
2019-05-20T20:11:54.065Z,97485.05
2019-05-20T20:14:22.087Z,97496.80
2019-05-20T20:16:49.408Z,97497.34
2019-05-20T20:19:16.717Z,97507.28
2019-05-20T20:21:44.011Z,97493.08
2019-05-20T20:24:11.312Z,97505.05
2019-05-20T20:26:39.265Z,97507.91
2019-05-20T20:29:11.048Z,97510.72
2019-05-20T20:31:37.859Z,97496.52
2019-05-20T20:34:05.296Z,97494.08
2019-05-20T20:36:33.285Z,97494.08
2019-05-20T20:39:01.465Z,97513.08
2019-05-20T20:41:29.129Z,97518.11
2019-05-20T20:43:57.484Z,97515.59
2019-05-20T20:46:25.078Z,97515.59
2019-05-20T20:48:52.963Z,97495.86
2019-05-20T20:51:20.429Z,97511.39
2019-05-20T20:53:47.866Z,97508.53
2019-05-20T20:56:24.836Z,97506.97
2019-05-20T20:58:45.235Z,97509.52
2019-05-20T21:01:12.491Z,97520.22
2019-05-20T21:03:39.780Z,97520.38
2019-05-20T21:07:12.181Z,97511.70
2019-05-20T21:10:09.423Z,97526.73
2019-05-20T21:12:36.639Z,97527.97
2019-05-20T21:15:04.680Z,97534.78
2019-05-20T21:17:32.697Z,97541.25
2019-05-20T21:20:00.483Z,97546.30
2019-05-20T21:22:30.183Z,97549.59
2019-05-20T21:24:57.434Z,97549.59
2019-05-20T21:27:25.291Z,97545.95
2019-05-20T21:29:52.875Z,97536.55
2019-05-20T21:32:20.079Z,97541.28
2019-05-20T21:34:48.194Z,97541.28
2019-05-20T21:37:15.715Z,97541.66
2019-05-20T21:39:43.720Z,97539.45
2019-05-20T21:42:11.408Z,97545.91
2019-05-20T21:44:38.987Z,97546.22
2019-05-20T21:47:06.500Z,97542.51
2019-05-20T21:49:34.161Z,97539.34
2019-05-20T21:52:02.003Z,97545.42
2019-05-20T21:54:29.907Z,97549.81
2019-05-20T21:56:58.053Z,97543.84
2019-05-20T21:59:25.916Z,97541.55
2019-05-20T22:01:53.206Z,97541.55
2019-05-20T22:04:20.590Z,97543.96
2019-05-20T22:06:47.847Z,97559.55
2019-05-20T22:09:15.460Z,97559.55
2019-05-20T22:11:43.604Z,97546.17
2019-05-20T22:14:10.888Z,97558.22
2019-05-20T22:16:38.136Z,97554.81
2019-05-20T22:19:05.790Z,97565.75
2019-05-20T22:21:39.637Z,97553.09
2019-05-20T22:24:07.104Z,97552.44
2019-05-20T22:26:34.374Z,97554.92
2019-05-20T22:29:01.718Z,97554.92
2019-05-20T22:31:29.530Z,97559.97
2019-05-20T22:33:57.060Z,97556.38
2019-05-20T22:36:24.269Z,97558.09
2019-05-20T22:38:51.878Z,97552.97
2019-05-20T22:41:19.180Z,97560.28
2019-05-20T22:43:46.740Z,97560.66
2019-05-20T22:46:14.176Z,97566.97
2019-05-20T22:48:41.385Z,97573.66
2019-05-20T22:51:08.619Z,97567.23
2019-05-20T22:53:36.218Z,97548.77
2019-05-20T22:56:03.756Z,97548.77
2019-05-20T23:00:57.016Z,97560.77
2019-05-20T23:03:24.220Z,97559.88
2019-05-20T23:05:51.931Z,97497.06
2019-05-20T23:08:19.184Z,97554.58
2019-05-20T23:10:46.861Z,97550.02
2019-05-20T23:13:14.936Z,97556.41
2019-05-20T23:15:43.006Z,97557.52
2019-05-20T23:18:10.710Z,97453.27
2019-05-20T23:20:38.273Z,97549.22
2019-05-20T23:23:05.533Z,97554.27
2019-05-20T23:25:32.846Z,97554.20
2019-05-20T23:28:00.024Z,97552.02
2019-05-20T23:30:27.275Z,97552.86
2019-05-20T23:32:55.793Z,97555.53
2019-05-20T23:35:23.749Z,97562.19
2019-05-20T23:37:51.157Z,97557.25
2019-05-20T23:40:18.436Z,97554.61
2019-05-20T23:42:45.784Z,97542.03
2019-05-20T23:45:13.280Z,97542.03
2019-05-20T23:47:40.548Z,97556.86
2019-05-20T23:50:07.785Z,97410.00
2019-05-20T23:52:35.451Z,97548.91
2019-05-20T23:55:02.856Z,97559.30
2019-05-20T23:57:30.184Z,97557.00
2019-05-20T23:59:57.430Z,97554.02
